^^
Meteo Knjazevac Station Historical Data
Daily Summary for May 23, 2022 Units:  English    Metric   Both
Daily Weekly Monthly Yearly Custom
  High: Low: Average:
Temperature: 81.7 °F 51.3 °F 67.1 °F
Dew Point: 56.8 °F 46 °F 52.8 °F
Humidity: 85% 42% 63%
Wind Speed: 13mph 0mph 2.9mph
Wind Gust: 20mph - -
Wind- - WSW
Pressure: 29.97 in 29.88 in -
Precipitation: 0.00 in    
Historical Graphs
 
 
Tabular Data for May 23, 2022
Time Temperature Dew Point Pressure Wind Wind Speed Wind Gust Humidity Rainfall Rate (Hourly) solar Conditions
00:00 55.4 °F 48.7 °F 29.97 in West 2 mph 4 mph 78% 0.00 in 0 W/m2
00:10 55 °F 48.3 °F 29.97 in Calm   3 mph 78% 0.00 in 0 W/m2
00:20 55 °F 48.6 °F 29.97 in WSW 1 mph 4 mph 79% 0.00 in 0 W/m2
00:30 54.7 °F 48.3 °F 29.97 in Calm   2 mph 79% 0.00 in 0 W/m2
00:40 54.5 °F 48.2 °F 29.97 in Calm   1 mph 79% 0.00 in 0 W/m2
00:50 54.1 °F 47.8 °F 29.97 in WNW 1 mph 2 mph 79% 0.00 in 0 W/m2
01:00 54 °F 48 °F 29.97 in Calm   2 mph 80% 0.00 in 0 W/m2
01:10 53.8 °F 47.8 °F 29.97 in Calm   2 mph 80% 0.00 in 0 W/m2
01:20 53.3 °F 46.9 °F 29.96 in Calm   2 mph 79% 0.00 in 0 W/m2
01:30 52.9 °F 46.9 °F 29.97 in Calm   2 mph 80% 0.00 in 0 W/m2
01:40 52.2 °F 46.2 °F 29.97 in Calm   1 mph 80% 0.00 in 0 W/m2
01:50 51.6 °F 46 °F 29.97 in WNW 1 mph 2 mph 81% 0.00 in 0 W/m2
02:00 51.4 °F 46.4 °F 29.97 in NW 1 mph 2 mph 83% 0.00 in 0 W/m2
02:10 51.3 °F 46.3 °F 29.97 in Calm   2 mph 83% 0.00 in 0 W/m2
02:20 51.4 °F 46.4 °F 29.97 in West 1 mph 2 mph 83% 0.00 in 0 W/m2
02:30 51.3 °F 46.6 °F 29.97 in NW 2 mph 3 mph 84% 0.00 in 0 W/m2
02:40 51.8 °F 47.4 °F 29.97 in Calm   3 mph 85% 0.00 in 0 W/m2
02:50 52 °F 47.3 °F 29.97 in Calm   2 mph 84% 0.00 in 0 W/m2
03:00 51.8 °F 47.1 °F 29.97 in West 1 mph 2 mph 84% 0.00 in 0 W/m2
03:10 52 °F 47.3 °F 29.97 in Calm   2 mph 84% 0.00 in 0 W/m2
03:20 52.2 °F 47.5 °F 29.97 in NW 1 mph 2 mph 84% 0.00 in 0 W/m2
03:30 52.3 °F 47.6 °F 29.96 in Calm   2 mph 84% 0.00 in 0 W/m2
03:40 52.5 °F 48.1 °F 29.96 in WNW 1 mph 2 mph 85% 0.00 in 0 W/m2
03:50 52.7 °F 48 °F 29.96 in WSW 1 mph 2 mph 84% 0.00 in 0 W/m2
04:00 52.9 °F 48.5 °F 29.97 in WNW 1 mph 2 mph 85% 0.00 in 0 W/m2
04:10 52.9 °F 48.2 °F 29.96 in Calm   2 mph 84% 0.00 in 0 W/m2
04:20 53.2 °F 48.5 °F 29.97 in WNW 2 mph 2 mph 84% 0.00 in 0 W/m2
04:30 53.2 °F 48.5 °F 29.96 in Calm   2 mph 84% 0.00 in 0 W/m2
04:40 53.4 °F 48.7 °F 29.96 in WSW 2 mph 3 mph 84% 0.00 in 0 W/m2
04:50 53.6 °F 49.2 °F 29.96 in Calm   3 mph 85% 0.00 in 0 W/m2
05:00 53.8 °F 49.1 °F 29.96 in WSW 1 mph 2 mph 84% 0.00 in 1 W/m2
05:10 53.9 °F 49.2 °F 29.96 in WNW 1 mph 3 mph 84% 0.00 in 1 W/m2
05:20 54.1 °F 49.4 °F 29.96 in WNW 1 mph 3 mph 84% 0.00 in 2 W/m2
05:30 54.3 °F 49.6 °F 29.96 in WNW 1 mph 2 mph 84% 0.00 in 6 W/m2
05:40 54.3 °F 49.6 °F 29.96 in West 1 mph 2 mph 84% 0.00 in 17 W/m2
05:50 54.5 °F 49.8 °F 29.96 in WNW 2 mph 3 mph 84% 0.00 in 8 W/m2
06:00 54.7 °F 49.9 °F 29.96 in Calm   3 mph 84% 0.00 in 10 W/m2
06:10 54.9 °F 50.1 °F 29.95 in Calm   2 mph 84% 0.00 in 69 W/m2
06:20 55.2 °F 50.1 °F 29.96 in Calm   2 mph 83% 0.00 in 63 W/m2
06:30 55.7 °F 50.7 °F 29.95 in North 1 mph 2 mph 83% 0.00 in 100 W/m2
06:40 56.1 °F 51.4 °F 29.96 in NW 1 mph 2 mph 84% 0.00 in 45 W/m2
06:50 56.5 °F 51.7 °F 29.96 in West 1 mph 2 mph 84% 0.00 in 49 W/m2
07:00 56.8 °F 51.7 °F 29.95 in WSW 1 mph 2 mph 83% 0.00 in 75 W/m2
07:10 57.2 °F 52.1 °F 29.96 in WSW 1 mph 3 mph 83% 0.00 in 67 W/m2
07:20 57.6 °F 52.4 °F 29.96 in West 1 mph 2 mph 83% 0.00 in 69 W/m2
07:30 57.7 °F 52.6 °F 29.96 in WSW 1 mph 2 mph 83% 0.00 in 100 W/m2
07:40 58.1 °F 52.3 °F 29.96 in Calm   2 mph 81% 0.00 in 139 W/m2
07:50 58.8 °F 52.7 °F 29.96 in Calm   3 mph 80% 0.00 in 175 W/m2
08:00 59.5 °F 53 °F 29.96 in SW 1 mph 2 mph 79% 0.00 in 167 W/m2
08:10 60.4 °F 53.5 °F 29.96 in SW 2 mph 3 mph 78% 0.00 in 203 W/m2
08:20 61.2 °F 53.9 °F 29.96 in WNW 1 mph 5 mph 77% 0.00 in 201 W/m2
08:30 61.9 °F 53.9 °F 29.96 in South 1 mph 2 mph 75% 0.00 in 229 W/m2
08:40 62.8 °F 54.3 °F 29.96 in East 1 mph 3 mph 74% 0.00 in 323 W/m2
08:50 63.5 °F 55.1 °F 29.96 in NNE 2 mph 3 mph 74% 0.00 in 236 W/m2
09:00 64.2 °F 55.4 °F 29.96 in ENE 2 mph 5 mph 73% 0.00 in 238 W/m2
09:10 65.1 °F 55.9 °F 29.95 in ESE 1 mph 4 mph 72% 0.00 in 272 W/m2
09:20 65.8 °F 55.4 °F 29.95 in SW 1 mph 3 mph 69% 0.00 in 259 W/m2
09:30 66.9 °F 54.8 °F 29.95 in SSW 1 mph 3 mph 65% 0.00 in 705 W/m2
09:40 68.7 °F 55.6 °F 29.95 in South 2 mph 5 mph 63% 0.00 in 735 W/m2
09:50 70.2 °F 56.5 °F 29.94 in NNW 1 mph 4 mph 62% 0.00 in 764 W/m2
10:00 71.6 °F 54.1 °F 29.94 in WSW 8 mph 13 mph 54% 0.00 in 791 W/m2
10:10 72.9 °F 56.7 °F 29.94 in SW 7 mph 10 mph 57% 0.00 in 820 W/m2
10:20 73.4 °F 53.1 °F 29.94 in SW 7 mph 13 mph 49% 0.00 in 842 W/m2
10:30 74.3 °F 53.9 °F 29.94 in WSW 7 mph 13 mph 49% 0.00 in 860 W/m2
10:40 75 °F 54.6 °F 29.94 in West 6 mph 12 mph 49% 0.00 in 141 W/m2
10:50 75.4 °F 54.3 °F 29.93 in WSW 6 mph 13 mph 48% 0.00 in 891 W/m2
11:00 75.9 °F 54.8 °F 29.93 in WNW 7 mph 13 mph 48% 0.00 in 905 W/m2
11:10 76.5 °F 55.3 °F 29.93 in West 7 mph 12 mph 48% 0.00 in 167 W/m2
11:20 76.8 °F 55.6 °F 29.93 in West 6 mph 9 mph 48% 0.00 in 560 W/m2
11:30 77.7 °F 55.9 °F 29.92 in West 6 mph 17 mph 47% 0.00 in 347 W/m2
11:40 77.7 °F 54.1 °F 29.92 in West 8 mph 17 mph 44% 0.00 in 944 W/m2
11:50 77.7 °F 54.1 °F 29.92 in West 9 mph 16 mph 44% 0.00 in 950 W/m2
12:00 78.1 °F 55 °F 29.92 in West 8 mph 16 mph 45% 0.00 in 955 W/m2
12:10 78.3 °F 54.6 °F 29.92 in West 6 mph 15 mph 44% 0.00 in 958 W/m2
12:20 79.2 °F 55.4 °F 29.91 in NW 5 mph 13 mph 44% 0.00 in 960 W/m2
12:30 79.2 °F 55.4 °F 29.91 in WNW 6 mph 14 mph 44% 0.00 in 960 W/m2
12:40 79.5 °F 55.1 °F 29.91 in WNW 7 mph 14 mph 43% 0.00 in 548 W/m2
12:50 79.9 °F 56 °F 29.91 in NW 7 mph 13 mph 44% 0.00 in 683 W/m2
13:00 79.9 °F 55.4 °F 29.91 in West 10 mph 14 mph 43% 0.00 in 495 W/m2
13:10 80.4 °F 55.9 °F 29.91 in WSW 9 mph 17 mph 43% 0.00 in 944 W/m2
13:20 80.1 °F 55.5 °F 29.91 in WSW 13 mph 20 mph 43% 0.00 in 937 W/m2
13:30 80.4 °F 55.9 °F 29.91 in West 7 mph 18 mph 43% 0.00 in 927 W/m2
13:40 80.8 °F 55.5 °F 29.90 in WSW 10 mph 17 mph 42% 0.00 in 917 W/m2
13:50 80.6 °F 56 °F 29.90 in WSW 8 mph 17 mph 43% 0.00 in 905 W/m2
14:00 80.8 °F 56.8 °F 29.90 in West 3 mph 16 mph 44% 0.00 in 891 W/m2
14:10 81.3 °F 56 °F 29.89 in WSW 12 mph 16 mph 42% 0.00 in 876 W/m2
14:20 81 °F 55.7 °F 29.89 in WSW 7 mph 19 mph 42% 0.00 in 844 W/m2
14:30 81 °F 56.4 °F 29.89 in West 5 mph 17 mph 43% 0.00 in 843 W/m2
14:40 81.7 °F 56.4 °F 29.89 in WNW 6 mph 13 mph 42% 0.00 in 663 W/m2
14:50 81.3 °F 56 °F 29.89 in West 6 mph 17 mph 42% 0.00 in 804 W/m2
15:00 81.3 °F 56 °F 29.89 in West 7 mph 16 mph 42% 0.00 in 783 W/m2
15:10 81.3 °F 56 °F 29.89 in WNW 6 mph 16 mph 42% 0.00 in 593 W/m2
15:20 81.3 °F 56 °F 29.88 in West 7 mph 15 mph 42% 0.00 in 737 W/m2
15:30 81.3 °F 56 °F 29.89 in WNW 6 mph 20 mph 42% 0.00 in 712 W/m2
15:40 81.3 °F 56.7 °F 29.88 in WSW 7 mph 16 mph 43% 0.00 in 676 W/m2
15:50 80.8 °F 55.5 °F 29.89 in WSW 5 mph 17 mph 42% 0.00 in 470 W/m2
16:00 80.2 °F 55.7 °F 29.89 in West 7 mph 13 mph 43% 0.00 in 569 W/m2
16:10 79.7 °F 55.2 °F 29.89 in West 9 mph 15 mph 43% 0.00 in 490 W/m2
16:20 79.5 °F 55.1 °F 29.89 in West 5 mph 13 mph 43% 0.00 in 437 W/m2
16:30 79.3 °F 55.5 °F 29.88 in West 7 mph 12 mph 44% 0.00 in 509 W/m2
16:40 79.1 °F 55.3 °F 29.88 in WSW 6 mph 13 mph 44% 0.00 in 378 W/m2
16:50 78.8 °F 55 °F 29.88 in West 5 mph 12 mph 44% 0.00 in 256 W/m2
17:00 78.4 °F 55.3 °F 29.88 in WSW 6 mph 10 mph 45% 0.00 in 276 W/m2
17:10 78.4 °F 55.3 °F 29.89 in West 6 mph 12 mph 45% 0.00 in 249 W/m2
17:20 78.1 °F 55 °F 29.89 in West 7 mph 12 mph 45% 0.00 in 188 W/m2
17:30 77.9 °F 54.8 °F 29.89 in West 5 mph 12 mph 45% 0.00 in 308 W/m2
17:40 77.9 °F 54.8 °F 29.89 in West 3 mph 10 mph 45% 0.00 in 138 W/m2
17:50 77.4 °F 54.4 °F 29.89 in NW 3 mph 8 mph 45% 0.00 in 108 W/m2
18:00 77.2 °F 54.2 °F 29.88 in WNW 5 mph 10 mph 45% 0.00 in 117 W/m2
18:10 76.8 °F 53.9 °F 29.88 in NW 5 mph 9 mph 45% 0.00 in 83 W/m2
18:20 76.6 °F 54.9 °F 29.89 in WNW 5 mph 8 mph 47% 0.00 in 60 W/m2
18:30 76.1 °F 55 °F 29.89 in WNW 3 mph 8 mph 48% 0.00 in 30 W/m2
18:40 75.7 °F 54.7 °F 29.89 in WNW 3 mph 7 mph 48% 0.00 in 36 W/m2
18:50 75.4 °F 54.9 °F 29.89 in WNW 3 mph 9 mph 49% 0.00 in 33 W/m2
19:00 74.6 °F 54.2 °F 29.90 in WNW 5 mph 9 mph 49% 0.00 in 16 W/m2
19:10 74.1 °F 54.3 °F 29.90 in West 2 mph 9 mph 50% 0.00 in 8 W/m2
19:20 73.9 °F 55.2 °F 29.90 in West 2 mph 7 mph 52% 0.00 in 8 W/m2
19:30 73.6 °F 54.9 °F 29.90 in WNW 3 mph 7 mph 52% 0.00 in 5 W/m2
19:40 73.2 °F 55.1 °F 29.90 in West 2 mph 7 mph 53% 0.00 in 4 W/m2
19:50 73 °F 54.9 °F 29.90 in WNW 2 mph 5 mph 53% 0.00 in 2 W/m2
20:00 72.6 °F 54.5 °F 29.89 in WNW 1 mph 5 mph 53% 0.00 in 0 W/m2
20:10 72.3 °F 54.2 °F 29.90 in WSW 2 mph 3 mph 53% 0.00 in 0 W/m2
20:20 72 °F 54.4 °F 29.90 in Calm   3 mph 54% 0.00 in 0 W/m2
20:30 71.6 °F 54.1 °F 29.90 in Calm   2 mph 54% 0.00 in 0 W/m2
20:40 71.4 °F 55.4 °F 29.91 in Calm   4 mph 57% 0.00 in 0 W/m2
20:50 70.9 °F 54.9 °F 29.91 in Calm   3 mph 57% 0.00 in 0 W/m2
21:00 70.5 °F 54.5 °F 29.91 in Calm   3 mph 57% 0.00 in 0 W/m2
21:10 70 °F 54.5 °F 29.91 in SSE 1 mph 3 mph 58% 0.00 in 0 W/m2
21:20 69.4 °F 54.5 °F 29.91 in Calm   3 mph 59% 0.00 in 0 W/m2
21:30 69 °F 54.6 °F 29.91 in Calm   2 mph 60% 0.00 in 0 W/m2
21:40 68.5 °F 54.1 °F 29.91 in Calm   2 mph 60% 0.00 in 0 W/m2
21:50 68 °F 54.4 °F 29.91 in SW 1 mph 3 mph 62% 0.00 in 0 W/m2
22:00 67.3 °F 53.8 °F 29.91 in Calm   3 mph 62% 0.00 in 0 W/m2
22:10 66.7 °F 53.7 °F 29.92 in SSE 1 mph 4 mph 63% 0.00 in 0 W/m2
22:20 66.2 °F 53.6 °F 29.91 in Calm   2 mph 64% 0.00 in 0 W/m2
22:30 65.8 °F 53.3 °F 29.91 in Calm   2 mph 64% 0.00 in 0 W/m2
22:40 65.3 °F 53.2 °F 29.92 in SSE 1 mph 3 mph 65% 0.00 in 0 W/m2
22:50 64.8 °F 53.1 °F 29.91 in Calm   2 mph 66% 0.00 in 0 W/m2
23:00 64.4 °F 53.2 °F 29.92 in Calm   2 mph 67% 0.00 in 0 W/m2
23:10 63.9 °F 53.1 °F 29.92 in WSW 1 mph 3 mph 68% 0.00 in 0 W/m2
23:20 63.5 °F 53.1 °F 29.92 in Calm   1 mph 69% 0.00 in 0 W/m2
23:30 63.1 °F 52.8 °F 29.92 in Calm   2 mph 69% 0.00 in 0 W/m2
23:40 62.8 °F 52.8 °F 29.92 in Calm   2 mph 70% 0.00 in 0 W/m2
23:50 62.4 °F 52.5 °F 29.92 in Calm   2 mph 70% 0.00 in 0 W/m2
Knjazevac, Serbia
Compliments of Weather Underground - 2 mb